Time;durP1;ratioP1;P1;durP2;ratioP2;P2;SDS_P1;SDS_P2;PMS_P1;PMS_P2;Temp;Humidity;BMP_temperature;BMP_pressure;BME280_temperature;BME280_humidity;BME280_pressure;Samples;Min_cycle;Max_cycle;Signal;HPM_P1;HPM_P2
2022/05/21 00:00:59;;;;;;;7.47;3.25;;;;;;;12.40;61.55;97852.13;1692445;85;21033;-88
2022/05/21 00:03:25;;;;;;;5.58;3.67;;;;;;;12.37;61.26;97843.81;1692451;83;21418;-88
2022/05/21 00:05:52;;;;;;;9.95;4.05;;;;;;;12.37;61.34;97846.47;1692306;85;21451;-88
2022/05/21 00:08:21;;;;;;;10.38;3.55;;;;;;;12.34;61.33;97841.75;1692522;84;21111;-88
2022/05/21 00:10:47;;;;;;;9.68;3.72;;;;;;;12.35;61.35;97831.52;1692145;85;21028;-89
2022/05/21 00:13:14;;;;;;;8.50;3.27;;;;;;;12.32;61.24;97831.63;1692270;85;20985;-88
2022/05/21 00:15:41;;;;;;;6.87;3.45;;;;;;;12.32;61.43;97830.30;1691722;85;21048;-87
2022/05/21 00:18:08;;;;;;;6.10;3.30;;;;;;;12.28;61.50;97830.44;1705819;84;21508;-88
2022/05/21 00:20:49;;;;;;;5.90;3.10;;;;;;;12.26;61.29;97822.13;1691916;85;21445;-88
2022/05/21 00:23:22;;;;;;;8.93;3.12;;;;;;;12.25;61.36;97833.68;1693307;84;21065;-88
2022/05/21 00:25:51;;;;;;;4.90;2.95;;;;;;;12.24;61.49;97838.56;1692065;85;21005;-89
2022/05/21 00:28:18;;;;;;;12.03;4.65;;;;;;;12.25;61.56;97838.52;1712299;83;21109;-89
2022/05/21 00:30:45;;;;;;;9.05;4.25;;;;;;;12.28;61.37;97835.75;1717176;84;21030;-89
2022/05/21 00:33:13;;;;;;;6.60;3.83;;;;;;;12.23;61.58;97827.09;1717266;84;21021;-89
2022/05/21 00:35:39;;;;;;;8.05;3.50;;;;;;;12.24;61.73;97821.30;1717181;84;21046;-89
2022/05/21 00:38:05;;;;;;;8.05;3.27;;;;;;;12.24;61.81;97824.83;1702604;84;21447;-89
2022/05/21 00:40:32;;;;;;;11.43;3.42;;;;;;;12.25;62.02;97828.37;1699917;84;21069;-88
2022/05/21 00:42:58;;;;;;;4.95;3.17;;;;;;;12.29;61.79;97831.28;1699996;84;21010;-89
2022/05/21 00:45:25;;;;;;;8.33;3.33;;;;;;;12.24;61.92;97832.80;1699985;84;21101;-89
2022/05/21 00:47:52;;;;;;;7.25;3.52;;;;;;;12.22;61.84;97832.46;1747368;82;20984;-88
2022/05/21 00:50:22;;;;;;;7.33;3.80;;;;;;;12.16;61.95;97839.34;1752894;82;21035;-89
2022/05/21 00:52:51;;;;;;;6.83;3.58;;;;;;;12.09;62.21;97844.87;1751783;82;21100;-89
2022/05/21 00:55:27;;;;;;;8.55;3.65;;;;;;;12.07;62.31;97849.39;1745850;82;21517;-88
2022/05/21 01:00:47;;;;;;;7.17;3.58;;;;;;;12.01;62.36;97853.10;1732750;83;21063;-89
2022/05/21 01:03:17;;;;;;;6.85;3.27;;;;;;;11.97;63.06;97836.91;1699775;83;20946;-89
2022/05/21 01:05:46;;;;;;;6.12;3.05;;;;;;;11.96;62.63;97848.91;1732671;82;21012;-89
2022/05/21 01:08:13;;;;;;;7.92;3.62;;;;;;;11.94;62.67;97846.30;1699974;84;21445;-88
2022/05/21 01:10:43;;;;;;;4.60;2.75;;;;;;;11.91;62.78;97842.91;1732601;83;21016;-88
2022/05/21 01:13:13;;;;;;;8.23;3.20;;;;;;;11.91;62.92;97838.44;1702282;84;21068;-88
2022/05/21 01:15:43;;;;;;;8.88;3.25;;;;;;;11.89;62.80;97827.03;1752968;82;21024;-88
2022/05/21 01:18:10;;;;;;;5.28;3.12;;;;;;;11.84;62.81;97831.64;1752816;82;21072;-88
2022/05/21 01:20:47;;;;;;;9.60;3.55;;;;;;;11.86;63.10;97828.45;1753087;82;21012;-88
2022/05/21 01:23:14;;;;;;;8.35;3.30;;;;;;;11.86;62.83;97825.80;1750577;82;21016;-88
2022/05/21 01:25:42;;;;;;;9.05;4.00;;;;;;;11.87;62.73;97819.56;1705741;84;20993;-88
2022/05/21 01:28:12;;;;;;;10.75;3.87;;;;;;;11.87;63.02;97812.47;1750139;81;21461;-88
2022/05/21 01:30:42;;;;;;;5.45;3.12;;;;;;;11.91;62.80;97798.61;1745131;82;21417;-88
2022/05/21 01:33:12;;;;;;;6.35;3.85;;;;;;;11.94;62.64;97793.19;1745109;82;21032;-88
2022/05/21 01:35:40;;;;;;;9.13;3.40;;;;;;;11.88;62.80;97784.98;1745208;82;21118;-88
2022/05/21 01:38:08;;;;;;;7.08;3.50;;;;;;;11.85;62.98;97786.90;1744990;81;21055;-88
2022/05/21 01:40:35;;;;;;;6.87;4.15;;;;;;;11.73;63.25;97794.42;1745071;81;21017;-87
2022/05/21 01:45:46;;;;;;;7.00;3.22;;;;;;;11.69;63.53;97794.12;1695734;85;20996;-87
2022/05/21 01:48:18;;;;;;;6.42;3.12;;;;;;;11.58;63.71;97776.37;1695724;85;21031;-87
2022/05/21 01:50:40;;;;;;;6.75;3.12;;;;;;;11.50;64.08;97767.38;1696402;83;20996;-87
2022/05/21 01:53:06;;;;;;;8.50;3.47;;;;;;;11.41;64.42;97767.27;1666885;83;21095;-88
2022/05/21 01:55:33;;;;;;;6.87;3.30;;;;;;;11.40;64.56;97769.52;1705516;81;21023;-86
2022/05/21 01:57:59;;;;;;;7.87;3.58;;;;;;;11.42;64.63;97762.36;1705315;84;21457;-87
2022/05/21 02:00:26;;;;;;;7.20;4.12;;;;;;;11.44;64.71;97762.31;1709890;84;21023;-87
2022/05/21 02:02:52;;;;;;;9.98;3.50;;;;;;;11.39;64.68;97761.61;1707423;83;21042;-87
2022/05/21 02:05:18;;;;;;;6.95;3.27;;;;;;;11.31;64.83;97762.77;1710473;83;21080;-88
2022/05/21 02:07:45;;;;;;;7.30;3.27;;;;;;;11.24;65.28;97761.25;1703610;84;20995;-87
2022/05/21 02:10:11;;;;;;;4.75;3.85;;;;;;;11.24;65.71;97761.73;1703435;84;21059;-88
2022/05/21 02:12:39;;;;;;;7.37;3.08;;;;;;;11.27;65.88;97769.11;1697943;84;21043;-88
2022/05/21 02:15:07;;;;;;;8.30;3.08;;;;;;;11.28;65.29;97774.81;1679140;85;21125;-88
2022/05/21 02:17:33;;;;;;;7.47;3.45;;;;;;;11.27;65.37;97774.86;1679238;85;21045;-88
2022/05/21 02:20:00;;;;;;;4.92;2.92;;;;;;;11.27;65.74;97781.49;1679263;85;21604;-89
2022/05/21 02:22:27;;;;;;;7.58;3.55;;;;;;;11.27;65.48;97776.19;1679334;85;20994;-89
2022/05/21 02:24:54;;;;;;;6.87;3.20;;;;;;;11.21;65.42;97776.81;1679208;85;21072;-89
2022/05/21 02:27:20;;;;;;;8.73;3.35;;;;;;;11.14;66.00;97773.11;1679333;85;21034;-89
2022/05/21 02:29:46;;;;;;;4.92;3.10;;;;;;;11.12;65.96;97765.69;1679347;85;21512;-89
2022/05/21 02:32:14;;;;;;;6.78;3.45;;;;;;;11.12;65.81;97765.20;1692756;84;20988;-88
2022/05/21 02:34:42;;;;;;;5.12;3.20;;;;;;;11.08;66.04;97758.27;1661154;86;20997;-89
2022/05/21 02:39:54;;;;;;;8.05;3.52;;;;;;;11.00;66.14;97751.07;1692127;85;21453;-89
2022/05/21 02:45:06;;;;;;;13.38;4.08;;;;;;;10.94;66.49;97746.39;1662901;86;21429;-89
2022/05/21 02:47:33;;;;;;;7.85;3.95;;;;;;;10.92;66.48;97738.93;1692051;85;21095;-89
2022/05/21 02:49:59;;;;;;;11.75;4.30;;;;;;;10.88;66.53;97740.44;1692041;84;21001;-89
2022/05/21 02:52:26;;;;;;;8.20;3.72;;;;;;;10.85;66.96;97743.18;1664281;86;21036;-87
2022/05/21 02:54:53;;;;;;;7.72;4.05;;;;;;;10.86;67.01;97749.76;1664276;86;21052;-88
2022/05/21 02:57:19;;;;;;;10.28;3.98;;;;;;;10.89;67.26;97741.70;1664225;85;21370;-87
2022/05/21 02:59:48;;;;;;;9.45;4.15;;;;;;;10.93;66.99;97747.28;1664218;86;21028;-87
2022/05/21 03:02:13;;;;;;;8.20;3.85;;;;;;;10.87;67.04;97751.48;1705373;84;21070;-88
2022/05/21 03:04:39;;;;;;;8.55;4.05;;;;;;;10.89;67.63;97755.41;1706372;83;21074;-87
2022/05/21 03:07:06;;;;;;;7.28;4.00;;;;;;;10.94;67.42;97745.06;1688822;85;21062;-88
2022/05/21 03:12:17;;;;;;;6.90;3.90;;;;;;;11.00;67.06;97739.98;1709628;83;21009;-89
2022/05/21 03:14:43;;;;;;;7.75;4.28;;;;;;;10.97;67.43;97742.77;1703490;84;21049;-88
2022/05/21 03:17:11;;;;;;;7.65;4.10;;;;;;;11.01;67.01;97747.02;1703391;84;21059;-88
2022/05/21 03:19:39;;;;;;;8.10;4.00;;;;;;;10.98;67.14;97743.61;1709527;84;21069;-88
2022/05/21 03:22:05;;;;;;;6.22;3.55;;;;;;;11.03;67.50;97745.19;1695250;84;21080;-88
2022/05/21 03:24:32;;;;;;;7.45;4.40;;;;;;;11.07;67.02;97740.64;1692002;85;21083;-88
2022/05/21 03:26:58;;;;;;;9.58;4.00;;;;;;;11.09;67.75;97744.96;1692169;85;21127;-88
2022/05/21 03:29:25;;;;;;;7.25;4.15;;;;;;;11.18;66.87;97749.06;1692302;85;21457;-88
2022/05/21 03:31:51;;;;;;;8.10;3.75;;;;;;;11.17;67.08;97755.30;1704260;84;21015;-89
2022/05/21 03:34:18;;;;;;;8.05;4.08;;;;;;;11.20;67.12;97763.60;1709221;84;21582;-88
2022/05/21 03:36:44;;;;;;;6.90;4.15;;;;;;;11.25;67.21;97770.93;1709289;83;20987;-89
2022/05/21 03:39:11;;;;;;;8.23;4.03;;;;;;;11.34;67.33;97762.64;1709897;84;21024;-88
2022/05/21 03:41:37;;;;;;;8.03;3.67;;;;;;;11.46;67.55;97767.12;1699003;84;21036;-88
2022/05/21 03:44:04;;;;;;;5.65;4.17;;;;;;;11.58;67.21;97767.09;1692180;85;21083;-88
2022/05/21 03:46:32;;;;;;;6.28;4.17;;;;;;;11.68;66.95;97764.98;1692120;85;21401;-88
2022/05/21 03:48:58;;;;;;;9.30;3.65;;;;;;;11.74;66.59;97757.64;1692126;85;21107;-87
2022/05/21 03:51:25;;;;;;;6.65;3.90;;;;;;;11.82;66.67;97759.13;1700538;84;21018;-88
2022/05/21 03:53:51;;;;;;;7.05;4.30;;;;;;;11.84;66.15;97750.17;1709386;84;21038;-88
2022/05/21 03:56:18;;;;;;;8.68;4.10;;;;;;;11.93;66.30;97754.73;1709379;83;21169;-88
2022/05/21 03:58:44;;;;;;;5.58;3.83;;;;;;;11.96;65.65;97755.95;1709560;84;21039;-88
2022/05/21 04:01:10;;;;;;;7.53;3.75;;;;;;;11.95;65.66;97760.39;1702545;84;21024;-88
2022/05/21 04:03:37;;;;;;;6.37;3.92;;;;;;;12.00;66.35;97763.73;1690940;83;21030;-88
2022/05/21 04:06:03;;;;;;;4.42;3.75;;;;;;;12.07;65.85;97763.06;1720835;83;21087;-89
2022/05/21 04:08:30;;;;;;;9.68;3.47;;;;;;;12.15;65.67;97758.77;1720866;83;21028;-88
2022/05/21 04:10:57;;;;;;;5.55;3.67;;;;;;;12.25;65.19;97757.47;1713043;83;21135;-88
2022/05/21 04:13:23;;;;;;;7.55;3.55;;;;;;;12.39;64.96;97766.69;1692005;85;21084;-88
2022/05/21 04:15:49;;;;;;;7.75;3.30;;;;;;;12.52;64.60;97758.62;1703071;84;21483;-88
2022/05/21 04:18:18;;;;;;;4.80;3.77;;;;;;;12.67;64.37;97762.41;1709401;83;20967;-88
2022/05/21 04:20:45;;;;;;;6.72;3.65;;;;;;;12.75;64.19;97759.43;1706585;84;21024;-88
2022/05/21 04:23:11;;;;;;;7.62;3.67;;;;;;;12.83;63.83;97755.11;1692165;83;21052;-88
2022/05/21 04:25:38;;;;;;;6.05;3.40;;;;;;;12.88;63.81;97758.44;1692229;83;21052;-88
2022/05/21 04:28:04;;;;;;;4.95;3.47;;;;;;;12.96;63.48;97760.80;1692023;85;21068;-88
2022/05/21 04:30:31;;;;;;;5.37;3.80;;;;;;;13.04;63.27;97750.67;1693005;84;21024;-88
2022/05/21 04:32:58;;;;;;;8.50;3.80;;;;;;;13.10;63.15;97753.54;1709504;84;21450;-88
2022/05/21 04:36:17;;;;;;;5.55;3.80;;;;;;;13.15;63.17;97746.67;1705894;84;21075;-88
2022/05/21 04:37:54;;;;;;;7.10;4.00;;;;;;;13.19;63.05;97750.47;1666859;85;21475;-88
2022/05/21 04:40:22;;;;;;;10.18;4.00;;;;;;;13.25;62.72;97758.63;1664322;86;21088;-87
2022/05/21 04:42:49;;;;;;;10.25;3.70;;;;;;;13.35;62.55;97763.09;1669169;83;21390;-89
2022/05/21 04:45:16;;;;;;;9.23;4.08;;;;;;;13.42;62.59;97753.88;1664782;84;21462;-89
2022/05/21 04:47:43;;;;;;;6.83;3.75;;;;;;;13.40;62.42;97755.77;1692020;85;21135;-90
2022/05/21 04:50:10;;;;;;;9.05;3.70;;;;;;;13.46;62.51;97742.66;1691411;85;21173;-89
2022/05/21 04:52:37;;;;;;;9.53;3.10;;;;;;;13.57;62.30;97740.39;1664243;86;21084;-89
2022/05/21 04:55:06;;;;;;;8.15;3.85;;;;;;;13.59;62.00;97732.34;1664247;86;21516;-89
2022/05/21 04:57:34;;;;;;;7.83;3.60;;;;;;;13.64;61.76;97726.33;1690800;84;21746;-89
2022/05/21 05:00:01;;;;;;;5.12;3.08;;;;;;;13.71;61.60;97717.59;1692085;85;21470;-88
2022/05/21 05:02:28;;;;;;;6.65;3.37;;;;;;;13.77;61.39;97714.63;1692033;83;21080;-89
2022/05/21 05:04:54;;;;;;;8.93;3.62;;;;;;;13.79;60.97;97709.23;1693045;85;21032;-89
2022/05/21 05:07:22;;;;;;;6.72;3.75;;;;;;;13.84;60.81;97704.06;1694496;84;21019;-89
2022/05/21 05:09:48;;;;;;;4.95;3.77;;;;;;;13.92;60.83;97706.84;1693519;84;21448;-89
2022/05/21 05:12:16;;;;;;;5.58;3.22;;;;;;;13.98;60.66;97719.86;1692449;85;21048;-89
2022/05/21 05:14:42;;;;;;;5.15;3.20;;;;;;;14.07;60.46;97723.91;1692280;85;21096;-88
2022/05/21 05:17:12;;;;;;;9.00;4.03;;;;;;;14.11;59.92;97729.45;1704367;84;21022;-88
2022/05/21 05:19:38;;;;;;;7.95;3.47;;;;;;;14.21;59.80;97731.22;1709430;83;21153;-88
2022/05/21 05:22:11;;;;;;;5.75;3.70;;;;;;;14.27;59.63;97732.25;1709342;82;21062;-87
2022/05/21 05:24:35;;;;;;;5.35;3.27;;;;;;;14.34;59.82;97732.36;1703665;82;21076;-88
2022/05/21 05:27:01;;;;;;;7.35;3.72;;;;;;;14.45;59.71;97741.14;1701407;84;21007;-88
2022/05/21 05:29:28;;;;;;;8.30;4.40;;;;;;;14.60;59.55;97740.86;1712765;82;21050;-88
2022/05/21 05:31:55;;;;;;;12.20;4.95;;;;;;;14.82;59.63;97735.78;1717017;83;21031;-88
2022/05/21 05:34:22;;;;;;;11.97;4.90;;;;;;;15.02;59.24;97721.89;1713195;82;21033;-88
2022/05/21 05:36:49;;;;;;;13.32;6.92;;;;;;;15.19;59.13;97721.00;1699661;84;21033;-88
2022/05/21 05:39:16;;;;;;;11.93;6.78;;;;;;;15.34;59.03;97715.33;1699761;84;21071;-88
2022/05/21 05:41:42;;;;;;;11.70;6.72;;;;;;;15.47;58.89;97718.66;1699863;84;21070;-89
2022/05/21 05:44:09;;;;;;;16.20;6.97;;;;;;;15.54;58.61;97718.73;1734589;82;21055;-88
2022/05/21 05:46:36;;;;;;;12.53;7.30;;;;;;;15.57;58.56;97716.75;1753017;82;21000;-87
2022/05/21 05:49:03;;;;;;;15.30;7.78;;;;;;;15.63;58.48;97709.34;1753067;82;21059;-88
2022/05/21 05:51:29;;;;;;;16.17;8.45;;;;;;;15.70;58.37;97706.25;1752835;82;21378;-88
2022/05/21 05:53:55;;;;;;;14.73;6.97;;;;;;;15.73;58.30;97697.69;1752483;81;21450;-88
2022/05/21 05:56:22;;;;;;;12.45;6.37;;;;;;;15.77;58.10;97705.44;1700102;84;21041;-86
2022/05/21 06:01:35;;;;;;;15.90;6.25;;;;;;;15.92;57.69;97705.53;1721970;83;20912;-86
2022/05/21 06:04:01;;;;;;;10.85;6.15;;;;;;;16.02;57.20;97700.08;1731979;81;20984;-89
2022/05/21 06:06:28;;;;;;;22.80;7.30;;;;;;;16.21;57.00;97708.39;1753038;82;21043;-89
2022/05/21 06:08:55;;;;;;;8.95;5.53;;;;;;;16.36;56.69;97704.83;1752735;82;21059;-89
2022/05/21 06:11:21;;;;;;;16.42;6.10;;;;;;;16.48;56.79;97699.70;1741578;82;21481;-81
2022/05/21 06:13:47;;;;;;;9.90;5.03;;;;;;;16.54;56.56;97704.72;1699585;84;21056;-80
2022/05/21 06:16:15;;;;;;;10.32;5.15;;;;;;;16.72;56.41;97709.91;1726551;81;21417;-80
2022/05/21 06:18:42;;;;;;;11.12;5.42;;;;;;;16.92;55.59;97706.52;1692417;84;21486;-81
2022/05/21 06:21:09;;;;;;;10.13;5.22;;;;;;;17.13;55.62;97705.73;1725383;83;22106;-81
2022/05/21 06:23:37;;;;;;;10.50;4.83;;;;;;;17.34;54.94;97704.02;1685222;84;21013;-81
2022/05/21 06:26:04;;;;;;;10.75;5.22;;;;;;;17.54;54.71;97702.32;1736193;81;21026;-75
2022/05/21 06:28:30;;;;;;;11.95;4.95;;;;;;;17.70;54.25;97697.33;1683335;83;21767;-79
2022/05/21 06:30:57;;;;;;;11.40;4.83;;;;;;;17.81;53.71;97691.25;1714348;81;21062;-81
2022/05/21 06:33:27;;;;;;;11.97;4.92;;;;;;;17.89;53.58;97698.33;1668184;85;21314;-80
2022/05/21 06:36:14;;;;;;;9.88;4.40;;;;;;;17.97;53.15;97695.66;1663284;85;21508;-79
2022/05/21 06:38:42;;;;;;;9.83;5.55;;;;;;;18.13;53.11;97691.03;1679291;85;21059;-82
2022/05/21 06:41:09;;;;;;;10.72;6.05;;;;;;;18.33;52.84;97693.75;1684206;84;21027;-82
2022/05/21 06:43:36;;;;;;;12.05;4.62;;;;;;;18.54;52.68;97691.93;1688022;85;21059;-82
2022/05/21 06:46:03;;;;;;;8.75;4.35;;;;;;;18.71;51.76;97688.58;1691808;85;21024;-82
2022/05/21 06:48:30;;;;;;;9.63;4.50;;;;;;;18.88;50.40;97690.61;1681970;85;21068;-81
2022/05/21 06:50:57;;;;;;;13.68;4.30;;;;;;;18.91;50.03;97691.25;1674160;85;21016;-80
2022/05/21 06:53:23;;;;;;;9.78;5.25;;;;;;;19.00;50.11;97683.03;1691840;85;21489;-85
2022/05/21 06:55:51;;;;;;;9.73;4.87;;;;;;;19.01;49.74;97682.06;1688035;85;21093;-88
2022/05/21 06:58:18;;;;;;;10.78;4.67;;;;;;;19.06;50.31;97679.11;1692268;85;21068;-77
2022/05/21 07:00:46;;;;;;;9.03;4.85;;;;;;;19.01;50.03;97678.03;1692162;85;21020;-79
2022/05/21 07:03:12;;;;;;;15.43;5.87;;;;;;;19.00;50.03;97678.53;1692367;85;21044;-82
2022/05/21 07:08:27;;;;;;;16.07;5.35;;;;;;;18.94;49.87;97684.81;1692032;85;21131;-80
2022/05/21 07:10:54;;;;;;;16.23;5.22;;;;;;;18.97;50.22;97683.23;1682427;83;21441;-77
2022/05/21 07:13:23;;;;;;;16.37;5.35;;;;;;;18.99;50.12;97667.89;1680995;85;21004;-79
2022/05/21 07:15:49;;;;;;;18.55;5.17;;;;;;;19.02;50.13;97664.13;1677922;85;21099;-79
2022/05/21 07:18:19;;;;;;;15.58;4.75;;;;;;;19.04;49.95;97671.15;1685337;85;21064;-79
2022/05/21 07:20:46;;;;;;;11.57;4.87;;;;;;;19.06;49.73;97665.17;1690538;85;21087;-79
2022/05/21 07:23:13;;;;;;;17.57;4.60;;;;;;;19.04;49.18;97657.72;1691709;85;21676;-79
2022/05/21 07:25:40;;;;;;;11.93;4.17;;;;;;;19.04;49.22;97654.13;1691944;85;21059;-79
2022/05/21 07:28:09;;;;;;;11.95;5.22;;;;;;;19.07;48.56;97642.75;1691930;85;21562;-79
2022/05/21 07:30:36;;;;;;;13.90;4.47;;;;;;;19.12;48.67;97647.31;1688374;83;21447;-80
2022/05/21 07:33:04;;;;;;;12.40;4.45;;;;;;;19.24;49.05;97644.24;1686863;85;21049;-79
2022/05/21 07:35:31;;;;;;;8.98;3.70;;;;;;;19.36;49.06;97637.11;1686767;85;21048;-79
2022/05/21 07:37:58;;;;;;;7.83;3.90;;;;;;;19.48;48.45;97647.46;1686842;84;21012;-79
2022/05/21 07:40:24;;;;;;;11.78;4.15;;;;;;;19.63;48.73;97634.75;1686819;85;21033;-79
2022/05/21 07:42:51;;;;;;;22.35;4.35;;;;;;;19.72;48.45;97623.81;1686814;85;21071;-79
2022/05/21 07:45:19;;;;;;;27.27;5.00;;;;;;;19.81;48.51;97618.27;1686752;85;21097;-79
2022/05/21 07:47:47;;;;;;;27.95;4.25;;;;;;;19.87;48.45;97620.48;1686979;84;21025;-79
2022/05/21 07:50:14;;;;;;;26.97;13.65;;;;;;;19.97;48.38;97615.30;1686725;85;21069;-79
2022/05/21 07:52:42;;;;;;;15.00;9.80;;;;;;;20.04;48.02;97605.82;1686895;85;21062;-79
2022/05/21 07:55:10;;;;;;;15.83;8.75;;;;;;;20.11;47.79;97601.31;1686792;85;21128;-79
2022/05/21 07:57:36;;;;;;;9.18;4.08;;;;;;;20.22;47.72;97600.52;1686838;85;21029;-79
2022/05/21 08:00:06;;;;;;;10.50;4.03;;;;;;;20.30;47.28;97600.30;1686996;85;22075;-79
2022/05/21 08:02:34;;;;;;;9.10;3.37;;;;;;;20.41;46.84;97591.41;1686423;85;21028;-79
2022/05/21 08:05:00;;;;;;;5.58;3.05;;;;;;;20.50;46.35;97586.27;1686791;85;21057;-79
2022/05/21 08:07:27;;;;;;;5.17;3.20;;;;;;;20.61;46.31;97586.32;1686683;85;21016;-79
2022/05/21 08:09:53;;;;;;;5.72;3.35;;;;;;;20.69;46.03;97583.03;1687000;84;21112;-79
2022/05/21 08:12:20;;;;;;;8.20;3.87;;;;;;;20.80;45.62;97568.73;1686802;85;21006;-79
2022/05/21 08:14:50;;;;;;;10.20;3.92;;;;;;;20.94;46.17;97564.97;1687064;85;21048;-79
2022/05/21 08:17:14;;;;;;;9.53;3.83;;;;;;;21.07;45.97;97556.77;1686768;85;21057;-79
2022/05/21 08:19:41;;;;;;;9.03;4.20;;;;;;;21.17;45.70;97551.00;1686866;85;21022;-79
2022/05/21 08:27:38;;;;;;;10.50;4.50;;;;;;;21.66;46.35;97531.80;1721629;83;21043;-80
2022/05/21 08:30:06;;;;;;;9.90;4.22;;;;;;;21.85;46.20;97521.70;1688556;83;21052;-80
2022/05/21 08:32:32;;;;;;;8.38;4.05;;;;;;;22.04;46.32;97507.18;1662499;86;21012;-79
2022/05/21 08:35:00;;;;;;;11.68;5.22;;;;;;;22.12;46.28;97494.73;1692072;85;21104;-80
2022/05/21 08:37:30;;;;;;;15.75;6.28;;;;;;;22.24;46.20;97493.31;1662855;86;21004;-80
2022/05/21 08:39:56;;;;;;;12.23;6.47;;;;;;;22.32;46.26;97484.07;1692070;85;21112;-80
2022/05/21 08:42:35;;;;;;;9.80;5.17;;;;;;;22.39;46.51;97473.09;1709023;84;21014;-80
2022/05/21 08:45:17;;;;;;;8.58;4.78;;;;;;;22.49;46.53;97479.91;1680327;84;21075;-79
2022/05/21 08:47:47;;;;;;;11.15;5.15;;;;;;;22.65;46.78;97474.06;1709249;84;21054;-80
2022/05/21 08:50:15;;;;;;;11.83;4.62;;;;;;;22.84;46.65;97471.09;1708245;84;21058;-80
2022/05/21 08:52:57;;;;;;;6.72;4.00;;;;;;;23.05;46.37;97462.89;1709437;84;21058;-80
2022/05/21 08:55:27;;;;;;;6.85;4.40;;;;;;;23.20;46.16;97454.39;1705341;84;21097;-81
2022/05/21 08:58:03;;;;;;;6.35;3.90;;;;;;;23.38;46.06;97453.27;1680580;84;21080;-80
2022/05/21 09:00:38;;;;;;;8.55;4.65;;;;;;;23.55;46.08;97451.69;1699261;84;21132;-80
2022/05/21 09:03:11;;;;;;;7.50;4.70;;;;;;;23.73;46.13;97446.45;1693831;84;21454;-80
2022/05/21 09:05:40;;;;;;;6.80;4.67;;;;;;;23.90;45.78;97447.20;1697540;84;21457;-81
2022/05/21 09:08:16;;;;;;;6.05;4.10;;;;;;;24.06;45.61;97446.63;1692174;85;21021;-80
2022/05/21 09:10:55;;;;;;;6.45;4.22;;;;;;;24.27;45.24;97438.36;1691823;85;21046;-81
2022/05/21 09:13:47;;;;;;;7.35;4.25;;;;;;;24.50;44.91;97427.19;1692171;85;21044;-81
2022/05/21 09:19:05;;;;;;;9.43;4.03;;;;;;;25.04;44.44;97425.19;1709644;84;21039;-80
2022/05/21 09:21:35;;;;;;;7.25;4.25;;;;;;;25.25;44.10;97415.91;1696560;84;21072;-81
2022/05/21 09:24:04;;;;;;;9.90;4.42;;;;;;;25.47;43.71;97407.83;1692268;85;21438;-81
2022/05/21 09:26:42;;;;;;;5.20;4.25;;;;;;;25.65;43.59;97400.20;1692183;83;21016;-80
2022/05/21 09:29:27;;;;;;;12.93;4.12;;;;;;;25.81;43.48;97399.50;1700514;84;21079;-81
2022/05/21 09:31:55;;;;;;;11.00;4.10;;;;;;;25.96;43.26;97401.98;1686961;85;21057;-80
2022/05/21 09:34:28;;;;;;;6.85;4.00;;;;;;;26.12;43.03;97392.28;1687293;84;21033;-80
2022/05/21 09:36:55;;;;;;;6.92;4.30;;;;;;;26.29;43.23;97390.55;1722018;83;21452;-80
2022/05/21 09:39:41;;;;;;;5.58;4.08;;;;;;;26.39;42.96;97386.34;1686997;85;21501;-80
2022/05/21 09:45:26;;;;;;;5.70;3.58;;;;;;;26.60;42.70;97389.16;1721710;83;21000;-79
2022/05/21 09:48:05;;;;;;;13.00;4.95;;;;;;;26.73;42.56;97381.91;1686873;85;21418;-80
2022/05/21 09:50:44;;;;;;;8.80;4.83;;;;;;;26.86;42.37;97383.66;1721614;83;21083;-80
2022/05/21 09:53:37;;;;;;;10.35;4.85;;;;;;;26.89;42.11;97387.92;1686926;85;21049;-80
2022/05/21 09:56:07;;;;;;;14.10;5.28;;;;;;;26.97;41.86;97389.84;1673337;85;21028;-80
2022/05/21 09:58:38;;;;;;;14.20;4.40;;;;;;;27.00;41.75;97382.73;1721601;83;21001;-80
2022/05/21 10:01:08;;;;;;;10.43;4.60;;;;;;;27.08;41.74;97373.73;1721772;83;21029;-80
2022/05/21 10:03:41;;;;;;;10.50;4.45;;;;;;;27.19;41.46;97372.58;1721577;83;21071;-80
2022/05/21 10:06:20;;;;;;;9.50;4.70;;;;;;;27.28;41.44;97373.77;1721849;83;21038;-80
2022/05/21 10:11:48;;;;;;;8.98;4.58;;;;;;;27.33;41.13;97373.29;1721621;83;21084;-79
2022/05/21 10:14:36;;;;;;;7.72;4.50;;;;;;;27.53;41.15;97360.72;1712384;83;21076;-80
2022/05/21 10:17:11;;;;;;;5.87;4.10;;;;;;;27.63;41.37;97354.63;1686951;85;21060;-79
2022/05/21 10:19:56;;;;;;;7.78;4.85;;;;;;;27.90;41.50;97355.81;1720238;83;21554;-79
2022/05/21 10:22:45;;;;;;;12.15;4.70;;;;;;;28.01;41.56;97350.50;1721189;83;21068;-80
2022/05/21 10:25:14;;;;;;;8.83;4.60;;;;;;;28.17;41.11;97351.84;1721066;83;21449;-79
2022/05/21 10:28:10;;;;;;;6.78;4.70;;;;;;;28.38;40.47;97342.77;1721768;83;21417;-79
2022/05/21 10:30:52;;;;;;;10.50;3.90;;;;;;;28.46;40.08;97336.80;1722514;82;21011;-80
2022/05/21 10:33:46;;;;;;;8.03;3.83;;;;;;;28.48;37.08;97336.60;1692281;84;21036;-79
2022/05/21 10:36:24;;;;;;;;;;;;;;;28.59;38.79;97335.38;1665478;86;21095;-79
2022/05/21 10:39:06;;;;;;;6.25;4.17;;;;;;;28.82;38.53;97327.78;1683116;85;20372;-79
2022/05/21 10:41:48;;;;;;;5.78;3.70;;;;;;;28.85;38.42;97317.86;1682610;85;21035;-80
2022/05/21 10:44:41;;;;;;;6.65;6.00;;;;;;;29.40;37.64;97311.06;1682609;85;21025;-80
2022/05/21 10:47:17;;;;;;;4.35;3.87;;;;;;;29.43;37.41;97313.41;1682971;84;21654;-80
2022/05/21 10:50:02;;;;;;;5.55;3.75;;;;;;;29.49;35.99;97311.84;1664404;85;21167;-80
2022/05/21 10:52:50;;;;;;;5.17;3.47;;;;;;;29.93;36.68;97306.69;1687737;85;21068;-80
2022/05/21 10:55:24;;;;;;;8.05;4.00;;;;;;;30.40;35.89;97290.99;1687399;85;21675;-80
2022/05/21 10:58:11;;;;;;;5.87;3.50;;;;;;;30.81;36.43;97294.56;1688023;85;21058;-81
2022/05/21 11:00:47;;;;;;;6.15;3.17;;;;;;;31.57;35.37;97295.66;1687839;85;21065;-80
2022/05/21 11:03:40;;;;;;;7.60;3.80;;;;;;;32.06;31.90;97289.00;1687563;85;21034;-80
2022/05/21 11:06:10;;;;;;;4.35;3.55;;;;;;;32.31;31.83;97279.77;1688032;84;21088;-80
2022/05/21 11:08:57;;;;;;;4.97;3.10;;;;;;;32.88;31.39;97280.13;1687771;85;21072;-80
2022/05/21 11:11:33;;;;;;;3.42;3.05;;;;;;;32.65;30.27;97284.05;1673816;85;21044;-81
2022/05/21 11:14:12;;;;;;;5.45;3.20;;;;;;;32.57;31.77;97285.59;1687732;85;21001;-80
2022/05/21 11:16:45;;;;;;;4.83;3.08;;;;;;;32.38;31.30;97276.52;1687045;85;21053;-80
2022/05/21 11:19:31;;;;;;;5.20;2.80;;;;;;;31.91;31.68;97287.22;1686929;85;21087;-80
2022/05/21 11:22:02;;;;;;;5.72;2.83;;;;;;;32.05;31.00;97288.68;1687792;85;21040;-80
2022/05/21 11:24:50;;;;;;;5.10;2.50;;;;;;;32.72;31.59;97291.80;1687546;85;21108;-81
2022/05/21 11:27:28;;;;;;;4.85;2.22;;;;;;;33.27;30.49;97290.91;1687752;85;21411;-80
2022/05/21 11:30:00;;;;;;;2.87;2.20;;;;;;;33.60;29.50;97280.17;1687919;85;21076;-81
2022/05/21 11:38:40;;;;;;;3.35;2.40;;;;;;;33.53;29.39;97282.39;1705539;83;21043;-80
2022/05/21 11:41:24;;;;;;;7.33;2.10;;;;;;;32.96;28.24;97283.20;1705582;84;21071;-80
2022/05/21 11:46:46;;;;;;;2.92;2.62;;;;;;;31.39;30.15;97287.93;1707339;84;21028;-80
2022/05/21 11:49:35;;;;;;;3.62;2.30;;;;;;;30.88;31.06;97288.34;1758153;81;22155;-80
2022/05/21 11:52:21;;;;;;;2.55;2.15;;;;;;;30.53;30.75;97278.02;1749941;81;21031;-79
2022/05/21 11:54:59;;;;;;;4.12;2.50;;;;;;;30.16;31.47;97284.78;1704609;82;21026;-80
2022/05/21 11:57:37;;;;;;;2.70;2.30;;;;;;;30.51;31.97;97284.20;1707182;84;21024;-80
2022/05/21 12:00:19;;;;;;;3.98;2.00;;;;;;;30.72;31.22;97288.88;1740174;82;21514;-80
2022/05/21 12:02:59;;;;;;;5.00;2.52;;;;;;;31.37;30.77;97279.91;1756476;81;20999;-80
2022/05/21 12:05:38;;;;;;;7.72;2.42;;;;;;;32.23;30.45;97284.04;1761005;81;21660;-80
2022/05/21 12:08:27;;;;;;;4.40;2.33;;;;;;;32.71;29.49;97275.54;1760960;81;21056;-80
2022/05/21 12:10:57;;;;;;;6.15;2.45;;;;;;;32.51;29.97;97278.50;1760613;81;21528;-80
2022/05/21 12:13:39;;;;;;;4.22;2.47;;;;;;;32.44;30.57;97271.30;1710666;84;21602;-80
2022/05/21 12:16:24;;;;;;;4.97;2.17;;;;;;;32.86;29.66;97278.95;1679563;85;21483;-80
2022/05/21 12:18:52;;;;;;;4.08;2.10;;;;;;;33.15;29.47;97278.32;1712827;84;21031;-80
2022/05/21 12:21:38;;;;;;;6.62;2.58;;;;;;;33.49;27.56;97267.91;1719019;81;21003;-80
2022/05/21 12:24:28;;;;;;;2.77;2.20;;;;;;;34.19;28.14;97261.94;1739914;82;21432;-81
2022/05/21 12:27:05;;;;;;;2.65;2.42;;;;;;;35.03;27.40;97263.06;1740209;82;21063;-81
2022/05/21 12:29:35;;;;;;;4.70;2.70;;;;;;;35.81;26.95;97261.56;1729285;82;21488;-81